Time;durP1;ratioP1;P1;durP2;ratioP2;P2;SDS_P1;SDS_P2;PMS_P1;PMS_P2;Temp;Humidity;BMP_temperature;BMP_pressure;BME280_temperature;BME280_humidity;BME280_pressure;Samples;Min_cycle;Max_cycle;Signal;HPM_P1;HPM_P2
2023/03/27 00:00:26;;;;;;;6.32;1.55;;;9.40;99.90;;;8.60;100.00;101659.19;4154426;28;20026;-75
2023/03/27 00:02:27;;;;;;;7.05;1.67;;;9.40;99.90;;;8.53;100.00;101649.31;4154315;28;20081;-75
2023/03/27 00:04:28;;;;;;;10.55;2.17;;;9.40;99.90;;;8.59;100.00;101668.06;4154240;28;20494;-75
2023/03/27 00:06:33;;;;;;;10.02;1.63;;;9.40;99.90;;;8.53;100.00;101668.56;4154166;28;20056;-75
2023/03/27 00:08:37;;;;;;;6.97;1.98;;;9.40;99.90;;;8.55;100.00;101669.25;4153707;28;20026;-75
2023/03/27 00:10:39;;;;;;;6.82;1.70;;;9.40;99.90;;;8.52;100.00;101666.03;4152641;28;20040;-75
2023/03/27 00:12:43;;;;;;;6.78;2.03;;;9.40;99.90;;;8.54;100.00;101670.19;4152649;28;20033;-75
2023/03/27 00:14:44;;;;;;;6.45;1.42;;;9.40;99.90;;;8.55;100.00;101665.78;4168966;28;20203;-75
2023/03/27 00:16:45;;;;;;;5.45;1.90;;;9.40;99.90;;;8.54;100.00;101664.13;4153741;28;20462;-75
2023/03/27 00:18:46;;;;;;;3.45;1.50;;;9.40;99.90;;;8.51;100.00;101665.19;4152485;28;20022;-75
2023/03/27 00:20:48;;;;;;;4.60;1.48;;;9.40;99.90;;;8.50;100.00;101667.94;4153916;28;20040;-75
2023/03/27 00:22:55;;;;;;;7.70;2.28;;;9.40;99.90;;;8.54;100.00;101685.16;4152404;28;20159;-75
2023/03/27 00:24:56;;;;;;;5.60;1.75;;;9.40;99.90;;;8.52;100.00;101692.31;4152677;28;20026;-75
2023/03/27 00:26:57;;;;;;;4.75;1.73;;;9.40;99.90;;;8.51;100.00;101695.94;4153808;28;20026;-75
2023/03/27 00:28:57;;;;;;;4.63;1.63;;;9.40;99.90;;;8.47;100.00;101690.06;4152068;28;20030;-75
2023/03/27 00:30:58;;;;;;;4.93;1.67;;;9.40;99.90;;;8.53;100.00;101708.00;4168838;28;20037;-75
2023/03/27 00:33:00;;;;;;;8.00;2.22;;;9.40;99.90;;;8.53;100.00;101699.25;4153839;28;20023;-75
2023/03/27 00:35:01;;;;;;;4.32;1.50;;;9.40;99.90;;;8.53;100.00;101700.09;4152519;28;20029;-75
2023/03/27 00:37:03;;;;;;;5.72;1.42;;;9.40;99.90;;;8.53;100.00;101700.09;4153590;28;20058;-75
2023/03/27 00:39:05;;;;;;;6.03;1.92;;;9.40;99.90;;;8.51;100.00;101704.63;4152212;28;20022;-75
2023/03/27 00:41:07;;;;;;;6.32;1.73;;;9.40;99.90;;;8.53;100.00;101705.38;4153578;28;20033;-75
2023/03/27 00:43:32;;;;;;;4.70;1.35;;;9.40;99.90;;;8.48;100.00;101712.78;4153556;28;20370;-75
2023/03/27 00:45:33;;;;;;;2.72;1.35;;;9.30;99.90;;;8.49;100.00;101722.31;4152197;28;20026;-75
2023/03/27 00:47:37;;;;;;;5.70;2.20;;;9.40;99.90;;;8.46;100.00;101719.09;4152239;28;20121;-75
2023/03/27 00:49:38;;;;;;;4.72;1.55;;;9.30;99.90;;;8.44;100.00;101713.97;4135804;28;20037;-75
2023/03/27 00:51:44;;;;;;;7.65;2.90;;;9.30;99.90;;;8.49;100.00;101724.13;4168637;28;20033;-75
2023/03/27 00:53:47;;;;;;;4.45;1.88;;;9.30;99.90;;;8.44;100.00;101721.00;4152015;28;20030;-75
2023/03/27 00:55:53;;;;;;;7.55;1.70;;;9.30;99.90;;;8.48;100.00;101732.97;4152150;28;20030;-75
2023/03/27 00:58:04;;;;;;;5.70;1.85;;;9.30;99.90;;;8.45;100.00;101733.22;4135866;28;20034;-75
2023/03/27 01:00:15;;;;;;;4.70;1.92;;;9.30;99.90;;;8.44;100.00;101744.69;4152231;28;20472;-75
2023/03/27 01:02:17;;;;;;;7.55;2.10;;;9.30;99.90;;;8.45;100.00;101755.09;4152439;28;20505;-75
2023/03/27 01:04:20;;;;;;;4.68;1.50;;;9.30;99.90;;;8.39;100.00;101747.66;4153165;28;20045;-75
2023/03/27 01:06:21;;;;;;;3.38;1.40;;;9.30;99.90;;;8.39;100.00;101745.03;4152218;28;20029;-75
2023/03/27 01:08:24;;;;;;;5.80;1.95;;;9.30;99.90;;;8.39;100.00;101757.34;4151623;28;20037;-75
2023/03/27 01:10:56;;;;;;;6.85;2.15;;;9.30;99.90;;;8.45;100.00;101762.97;4152089;28;20116;-75
2023/03/27 01:13:38;;;;;;;3.63;1.75;;;9.30;99.90;;;8.43;100.00;101772.75;4153279;28;20065;-75
2023/03/27 01:16:00;;;;;;;2.28;1.42;;;9.30;99.90;;;8.40;100.00;101764.25;4166540;28;20072;-75
2023/03/27 01:18:27;;;;;;;3.17;1.40;;;9.30;99.90;;;8.39;100.00;101771.34;4148933;28;20408;-75
2023/03/27 01:21:05;;;;;;;3.05;1.33;;;9.20;99.90;;;8.37;100.00;101767.97;4144526;28;20077;-75
2023/03/27 01:23:40;;;;;;;5.00;1.27;;;9.20;99.90;;;8.37;100.00;101772.38;4152450;28;20033;-75
2023/03/27 01:26:01;;;;;;;2.67;1.30;;;9.20;99.90;;;8.35;100.00;101772.50;4153007;28;20442;-75
2023/03/27 01:28:42;;;;;;;8.73;1.52;;;9.20;99.90;;;8.38;100.00;101774.06;4151256;28;20125;-75
2023/03/27 01:31:00;;;;;;;6.72;1.65;;;9.20;99.90;;;8.36;100.00;101771.56;4152051;28;20092;-75
2023/03/27 01:33:25;;;;;;;3.70;1.58;;;9.20;99.90;;;8.38;100.00;101769.66;4151748;28;20069;-75
2023/03/27 01:35:45;;;;;;;4.40;1.20;;;9.20;99.90;;;8.38;100.00;101771.44;4152818;28;20060;-75
2023/03/27 01:38:11;;;;;;;2.60;1.50;;;9.20;99.90;;;8.41;100.00;101782.56;4152413;28;20036;-75
2023/03/27 01:40:25;;;;;;;3.83;1.52;;;9.20;99.90;;;8.40;100.00;101777.41;4140862;28;20018;-75
2023/03/27 01:42:41;;;;;;;4.72;1.42;;;9.30;99.90;;;8.42;100.00;101773.72;4151694;28;20064;-74
2023/03/27 01:44:47;;;;;;;2.97;1.00;;;9.30;99.90;;;8.43;100.00;101771.91;4152538;28;20026;-75
2023/03/27 01:47:40;;;;;;;2.75;1.10;;;9.30;99.90;;;8.38;100.00;101774.91;4151270;28;20025;-75
2023/03/27 01:50:05;;;;;;;2.45;1.25;;;9.30;99.90;;;8.44;100.00;101789.38;4126856;28;20031;-74
2023/03/27 01:52:17;;;;;;;5.90;1.88;;;9.30;99.90;;;8.37;100.00;101778.47;4143066;28;20109;-75
2023/03/27 01:54:26;;;;;;;3.55;1.60;;;9.30;99.90;;;8.41;100.00;101790.44;4149355;28;20084;-74
2023/03/27 01:56:52;;;;;;;5.40;1.48;;;9.30;99.90;;;8.43;100.00;101785.06;4152639;28;20029;-75
2023/03/27 01:59:02;;;;;;;3.05;1.50;;;9.30;99.90;;;8.37;100.00;101781.09;4145945;28;20041;-75
2023/03/27 02:01:04;;;;;;;5.38;1.50;;;9.20;99.90;;;8.41;100.00;101786.97;4151245;28;20401;-74
2023/03/27 02:03:19;;;;;;;2.38;1.50;;;9.20;99.90;;;8.42;100.00;101792.13;4151415;28;20033;-75
2023/03/27 02:05:30;;;;;;;3.17;1.35;;;9.30;99.90;;;8.42;100.00;101797.41;4151416;28;20086;-75
2023/03/27 02:07:38;;;;;;;6.50;1.23;;;9.30;99.90;;;8.43;100.00;101799.03;4151990;28;20026;-75
2023/03/27 02:09:52;;;;;;;5.38;1.40;;;9.20;99.90;;;8.43;100.00;101806.94;4151331;28;20022;-75
2023/03/27 02:12:07;;;;;;;3.72;1.70;;;9.20;99.90;;;8.39;100.00;101792.38;4151383;28;20026;-75
2023/03/27 02:14:18;;;;;;;;;;;9.30;99.90;;;8.35;100.00;101804.06;4151514;28;20041;-75
2023/03/27 02:16:27;;;;;;;3.78;1.95;;;9.30;99.90;;;8.38;100.00;101806.47;4135509;28;20440;-75
2023/03/27 02:18:35;;;;;;;4.15;1.40;;;9.30;99.90;;;8.36;100.00;101811.00;4147658;28;20033;-75
2023/03/27 02:20:39;;;;;;;3.78;1.20;;;9.30;99.90;;;8.35;100.00;101811.94;4151005;28;20030;-75
2023/03/27 02:22:47;;;;;;;4.47;1.40;;;9.20;99.90;;;8.37;100.00;101809.19;4152134;28;20030;-75
2023/03/27 02:24:53;;;;;;;4.20;1.30;;;9.20;99.90;;;8.34;100.00;101811.09;4151343;28;20030;-75
2023/03/27 02:27:07;;;;;;;5.97;2.17;;;9.20;99.90;;;8.35;100.00;101814.56;4134549;28;20022;-75
2023/03/27 02:29:52;;;;;;;2.88;1.40;;;9.20;99.90;;;8.36;100.00;101812.78;4152356;28;20440;-75
2023/03/27 02:32:24;;;;;;;4.18;1.58;;;9.20;99.90;;;8.32;100.00;101802.50;4149421;28;20054;-75
2023/03/27 02:34:27;;;;;;;7.82;2.20;;;9.20;99.90;;;8.30;100.00;101800.94;4152461;28;20030;-75
2023/03/27 02:36:53;;;;;;;3.33;1.65;;;9.20;99.90;;;8.36;100.00;101818.03;4151150;28;20026;-75
2023/03/27 02:39:09;;;;;;;5.70;1.90;;;9.20;99.90;;;8.33;100.00;101808.59;4140824;28;20041;-75
2023/03/27 02:41:38;;;;;;;7.25;2.45;;;9.20;99.90;;;8.40;100.00;101817.69;4136273;28;20403;-75
2023/03/27 02:43:46;;;;;;;4.25;1.80;;;9.20;99.90;;;8.31;100.00;101811.34;4143009;28;20116;-75
2023/03/27 02:45:59;;;;;;;6.28;2.72;;;9.20;99.90;;;8.33;100.00;101817.31;4131443;28;20027;-75
2023/03/27 02:48:16;;;;;;;3.40;1.70;;;9.20;99.90;;;8.37;100.00;101817.91;4142775;28;20030;-75
2023/03/27 02:50:38;;;;;;;3.22;1.80;;;9.20;99.90;;;8.34;100.00;101815.50;4138015;28;20061;-75
2023/03/27 02:52:45;;;;;;;4.00;2.05;;;9.20;99.90;;;8.34;100.00;101831.28;4134651;28;20100;-75
2023/03/27 02:54:54;;;;;;;5.00;2.00;;;9.20;99.90;;;8.35;100.00;101838.22;4154293;28;20430;-75
2023/03/27 02:57:02;;;;;;;5.85;1.70;;;9.20;99.90;;;8.38;100.00;101840.63;4152261;28;20117;-75
2023/03/27 02:59:35;;;;;;;2.20;1.60;;;9.20;99.90;;;8.29;100.00;101831.66;4149605;28;20104;-75
2023/03/27 03:01:38;;;;;;;4.20;2.50;;;9.20;99.90;;;8.36;100.00;101847.81;4139049;28;20045;-75
2023/03/27 03:03:52;;;;;;;4.20;1.90;;;9.20;99.90;;;8.34;100.00;101847.91;4154021;28;20513;-75
2023/03/27 03:05:57;;;;;;;5.80;2.50;;;9.20;99.90;;;8.37;100.00;101841.56;4154053;28;20474;-75
2023/03/27 03:07:58;;;;;;;6.05;2.20;;;9.20;99.90;;;8.36;100.00;101841.69;4154819;28;20513;-75
2023/03/27 03:10:00;;;;;;;4.53;2.15;;;9.20;99.90;;;8.36;100.00;101839.91;4155206;28;20038;-75
2023/03/27 03:12:01;;;;;;;3.85;2.35;;;9.20;99.90;;;8.38;100.00;101847.69;4153830;28;20490;-75
2023/03/27 03:14:02;;;;;;;4.28;2.20;;;9.20;99.90;;;8.35;100.00;101851.38;4154775;28;20026;-75
2023/03/27 03:16:03;;;;;;;3.50;2.08;;;9.20;99.90;;;8.37;100.00;101846.84;4153471;28;20022;-75
2023/03/27 03:18:04;;;;;;;2.90;1.83;;;9.20;99.90;;;8.27;100.00;101840.56;4149215;28;20034;-75
2023/03/27 03:20:08;;;;;;;4.63;2.00;;;9.20;99.90;;;8.24;100.00;101832.91;4154867;28;20030;-75
2023/03/27 03:22:10;;;;;;;4.35;2.13;;;9.20;99.90;;;8.29;100.00;101841.31;4154557;28;20394;-75
2023/03/27 03:24:11;;;;;;;5.47;2.72;;;9.20;99.90;;;8.25;100.00;101852.97;4154907;28;20509;-75
2023/03/27 03:26:14;;;;;;;4.78;2.53;;;9.10;99.90;;;8.26;100.00;101854.66;4153467;28;20509;-75
2023/03/27 03:28:17;;;;;;;7.53;2.92;;;9.10;99.90;;;8.23;100.00;101847.00;4154723;28;20022;-75
2023/03/27 03:30:18;;;;;;;3.97;2.20;;;9.10;99.90;;;8.21;100.00;101848.91;4169686;28;20038;-75
2023/03/27 03:32:19;;;;;;;6.05;2.47;;;9.10;99.90;;;8.20;100.00;101853.31;4154485;28;20045;-75
2023/03/27 03:34:21;;;;;;;6.45;2.75;;;9.00;99.90;;;8.16;100.00;101849.25;4154806;28;20026;-75
2023/03/27 03:36:22;;;;;;;4.65;2.55;;;9.00;99.90;;;8.11;100.00;101847.91;4153598;28;20467;-75
2023/03/27 03:38:23;;;;;;;7.20;2.55;;;8.90;99.90;;;8.06;100.00;101842.16;4154121;28;20103;-75
2023/03/27 03:40:24;;;;;;;5.60;2.45;;;9.00;99.90;;;8.07;100.00;101849.06;4153350;28;20058;-75
2023/03/27 03:42:25;;;;;;;5.30;2.70;;;8.90;99.90;;;8.03;100.00;101842.38;4169850;28;20080;-75
2023/03/27 03:44:26;;;;;;;3.55;2.35;;;8.90;99.90;;;8.00;100.00;101842.63;4153274;28;20478;-75
2023/03/27 03:46:27;;;;;;;6.55;3.08;;;8.90;99.90;;;8.03;100.00;101852.91;4169525;28;20095;-75
2023/03/27 03:48:28;;;;;;;5.32;2.53;;;8.90;99.90;;;7.95;100.00;101845.56;4154293;28;20045;-75
2023/03/27 03:50:29;;;;;;;8.25;2.85;;;8.80;99.90;;;7.97;100.00;101855.97;4153070;28;20440;-75
2023/03/27 03:52:30;;;;;;;6.20;3.35;;;8.80;99.90;;;7.94;100.00;101858.81;4152363;28;20033;-75
2023/03/27 03:54:31;;;;;;;5.15;2.70;;;8.80;99.90;;;7.93;100.00;101867.66;4153179;28;20421;-75
2023/03/27 03:56:33;;;;;;;4.03;2.45;;;8.80;99.90;;;7.91;100.00;101869.56;4153207;28;20402;-75
2023/03/27 03:58:34;;;;;;;6.30;3.40;;;8.80;99.90;;;7.85;100.00;101875.25;4146739;28;20049;-75
2023/03/27 04:00:39;;;;;;;4.18;1.90;;;8.70;99.90;;;7.78;100.00;101866.97;4152790;28;20097;-75
2023/03/27 04:02:40;;;;;;;3.15;1.90;;;8.60;99.90;;;7.67;100.00;101878.25;4152853;28;20026;-75
2023/03/27 04:04:41;;;;;;;2.83;1.88;;;8.50;99.90;;;7.53;100.00;101877.53;4147773;28;20507;-75
2023/03/27 04:06:43;;;;;;;4.97;2.20;;;8.40;99.90;;;7.36;100.00;101876.09;4146496;28;20445;-75
2023/03/27 04:08:44;;;;;;;4.63;1.92;;;8.20;99.90;;;7.24;100.00;101883.06;4151823;28;20067;-75
2023/03/27 04:10:47;;;;;;;6.13;2.35;;;8.10;99.90;;;7.09;100.00;101875.41;4152747;28;20378;-75
2023/03/27 04:12:49;;;;;;;4.18;2.40;;;8.00;99.90;;;7.00;100.00;101876.03;4152955;28;20038;-75
2023/03/27 04:14:50;;;;;;;6.30;2.80;;;7.90;99.90;;;6.88;100.00;101872.47;4144958;28;20050;-75
2023/03/27 04:16:51;;;;;;;6.20;2.92;;;7.70;99.90;;;6.79;100.00;101869.63;4148474;28;20030;-75
2023/03/27 04:18:53;;;;;;;6.10;2.85;;;7.70;99.90;;;6.69;100.00;101878.13;4166697;28;20025;-75
2023/03/27 04:20:57;;;;;;;5.82;2.60;;;7.60;99.90;;;6.62;100.00;101886.50;4152884;28;20033;-75
2023/03/27 04:23:01;;;;;;;5.53;2.50;;;7.50;99.90;;;6.50;100.00;101885.56;4153788;28;20402;-75
2023/03/27 04:25:02;;;;;;;12.60;3.08;;;7.40;99.90;;;6.43;100.00;101896.53;4152214;28;20081;-75
2023/03/27 04:27:04;;;;;;;6.50;2.67;;;7.30;99.90;;;6.33;100.00;101891.03;4150958;28;20033;-75
2023/03/27 04:29:09;;;;;;;5.38;3.08;;;7.30;99.90;;;6.24;100.00;101902.16;4141309;28;20113;-75
2023/03/27 04:31:10;;;;;;;6.03;2.95;;;7.20;99.90;;;6.24;100.00;101915.25;4152397;28;20055;-75
2023/03/27 04:33:17;;;;;;;7.43;3.65;;;7.10;99.90;;;6.16;100.00;101920.13;4153736;28;20584;-75
2023/03/27 04:35:19;;;;;;;4.40;2.95;;;7.00;99.90;;;6.11;100.00;101919.59;4152420;28;20042;-75
2023/03/27 04:37:21;;;;;;;7.40;3.55;;;7.00;99.90;;;6.07;100.00;101934.66;4152318;28;20021;-75
2023/03/27 04:39:22;;;;;;;6.93;2.85;;;6.90;99.90;;;6.00;100.00;101933.34;4153812;28;20101;-75
2023/03/27 04:41:28;;;;;;;6.15;3.10;;;6.90;99.90;;;5.97;100.00;101935.34;4153596;28;20028;-75
2023/03/27 04:43:29;;;;;;;7.55;3.38;;;6.80;99.90;;;5.95;100.00;101947.69;4139836;28;20478;-75
2023/03/27 04:45:31;;;;;;;5.32;4.00;;;6.80;99.90;;;5.91;100.00;101935.75;4152370;28;20061;-75
2023/03/27 04:47:36;;;;;;;7.25;3.72;;;6.80;99.90;;;5.96;100.00;101955.47;4168725;28;20041;-75
2023/03/27 04:49:37;;;;;;;11.43;4.60;;;6.80;99.90;;;6.02;100.00;101956.84;4168461;28;20033;-75
2023/03/27 04:51:40;;;;;;;8.05;3.97;;;6.80;99.90;;;6.02;100.00;101955.06;4156665;28;20083;-75
2023/03/27 04:53:41;;;;;;;7.50;3.83;;;6.80;99.90;;;6.06;100.00;101955.72;4152172;28;20033;-75
2023/03/27 04:55:44;;;;;;;8.45;4.43;;;6.90;99.90;;;6.12;100.00;101964.00;4153580;28;20030;-75
2023/03/27 04:57:46;;;;;;;8.07;4.30;;;6.90;99.90;;;6.17;100.00;101976.84;4146849;28;20597;-75
2023/03/27 04:59:47;;;;;;;7.05;3.22;;;7.00;99.90;;;6.18;100.00;101981.16;4153257;28;20022;-75
2023/03/27 05:01:49;;;;;;;6.70;3.22;;;7.00;99.90;;;6.24;100.00;101985.16;4152001;28;20041;-75
2023/03/27 05:03:52;;;;;;;6.30;3.83;;;7.10;99.90;;;6.27;100.00;101988.41;4152400;28;20025;-75
2023/03/27 05:05:53;;;;;;;9.35;5.00;;;7.10;99.90;;;6.31;100.00;101986.41;4153122;28;20474;-75
2023/03/27 05:07:54;;;;;;;8.82;5.30;;;7.10;99.90;;;6.31;100.00;101982.03;4148866;28;20033;-75
2023/03/27 05:09:56;;;;;;;8.75;4.68;;;7.10;99.90;;;6.30;100.00;101990.81;4151929;28;20030;-75
2023/03/27 05:11:57;;;;;;;6.10;4.65;;;7.10;99.90;;;6.27;100.00;101988.41;4153090;28;20045;-75
2023/03/27 05:13:58;;;;;;;7.32;4.50;;;7.10;99.90;;;6.27;100.00;101985.81;4151523;28;20030;-75
2023/03/27 05:16:00;;;;;;;11.07;4.90;;;7.10;99.90;;;6.21;100.00;101975.72;4152695;28;20506;-75
2023/03/27 05:18:01;;;;;;;9.38;4.70;;;7.00;99.90;;;6.25;100.00;101981.56;4151543;28;20054;-75
2023/03/27 05:20:03;;;;;;;8.25;4.25;;;7.00;99.90;;;6.22;100.00;101982.63;4151863;28;20076;-75
2023/03/27 05:22:03;;;;;;;8.55;5.18;;;7.00;99.90;;;6.18;100.00;101981.16;4152056;28;20400;-74
2023/03/27 05:24:05;;;;;;;7.03;4.50;;;7.00;99.90;;;6.12;100.00;101987.59;4151780;28;20026;-75
2023/03/27 05:26:06;;;;;;;9.52;5.10;;;7.00;99.90;;;6.07;100.00;101986.19;4152544;28;20045;-75
2023/03/27 05:28:07;;;;;;;11.63;5.20;;;6.90;99.90;;;6.05;100.00;101985.47;4135318;28;20037;-75
2023/03/27 05:30:08;;;;;;;8.38;4.55;;;6.90;99.90;;;5.99;100.00;101985.84;4151464;28;20029;-75
2023/03/27 05:32:09;;;;;;;7.75;4.15;;;6.80;99.90;;;5.92;100.00;101984.53;4151636;28;20096;-74
2023/03/27 05:34:10;;;;;;;8.95;4.85;;;6.80;99.90;;;5.87;100.00;101986.63;4144061;28;20034;-74
2023/03/27 05:36:11;;;;;;;6.00;4.45;;;6.70;99.90;;;5.79;100.00;101984.47;4152513;28;20513;-75
2023/03/27 05:38:13;;;;;;;9.60;4.72;;;6.70;99.90;;;5.79;100.00;101983.59;4150973;28;20491;-75
2023/03/27 05:40:21;;;;;;;8.63;5.18;;;6.60;99.90;;;5.75;100.00;101979.50;4152777;28;20029;-75
2023/03/27 05:42:22;;;;;;;7.05;4.75;;;6.60;99.90;;;5.64;100.00;101976.69;4151641;28;20026;-75
2023/03/27 05:44:24;;;;;;;10.27;4.70;;;6.50;99.90;;;5.63;100.00;101988.09;4151619;28;20030;-75
2023/03/27 05:46:25;;;;;;;8.25;4.82;;;6.50;99.90;;;5.55;100.00;101976.31;4151368;28;20018;-75
2023/03/27 05:48:26;;;;;;;7.07;5.10;;;6.50;99.90;;;5.54;100.00;101985.13;4144631;28;20036;-75
2023/03/27 05:50:33;;;;;;;10.40;4.97;;;6.50;99.90;;;5.55;100.00;101981.53;4167921;28;20036;-75
2023/03/27 05:52:34;;;;;;;6.55;4.72;;;6.40;99.90;;;5.54;100.00;101992.13;4151258;28;20034;-75
2023/03/27 05:54:35;;;;;;;8.65;4.35;;;6.40;99.90;;;5.49;100.00;101995.03;4152403;28;20033;-74
2023/03/27 05:56:36;;;;;;;9.38;4.53;;;6.40;99.90;;;5.42;100.00;101985.84;4152602;28;20049;-75
2023/03/27 05:58:37;;;;;;;9.43;5.15;;;6.30;99.90;;;5.39;100.00;101993.03;4152336;28;20401;-75
2023/03/27 06:00:41;;;;;;;9.45;4.45;;;6.30;99.90;;;5.41;100.00;101994.63;4151289;28;20026;-75
2023/03/27 06:02:43;;;;;;;9.43;4.18;;;6.30;99.90;;;5.42;100.00;102000.72;4135017;28;20156;-75
2023/03/27 06:04:45;;;;;;;9.82;4.35;;;6.30;99.90;;;5.42;100.00;101998.94;4134918;28;20560;-75
2023/03/27 06:06:45;;;;;;;9.80;4.07;;;6.30;99.90;;;5.43;100.00;102005.03;4144767;28;20022;-75
2023/03/27 06:08:46;;;;;;;8.25;4.50;;;6.30;99.90;;;5.36;100.00;102001.91;4134871;28;20080;-75
2023/03/27 06:10:47;;;;;;;8.23;4.18;;;6.30;99.90;;;5.38;100.00;102012.28;4152339;28;20033;-75
2023/03/27 06:12:56;;;;;;;9.57;4.13;;;6.30;99.90;;;5.35;100.00;102021.16;4152525;28;20038;-75
2023/03/27 06:14:57;;;;;;;9.85;4.00;;;6.20;99.90;;;5.32;100.00;102020.50;4150999;28;20126;-75
2023/03/27 06:16:58;;;;;;;10.00;4.05;;;6.20;99.90;;;5.27;100.00;102018.16;4167278;28;20037;-75
2023/03/27 06:18:59;;;;;;;7.88;3.70;;;6.20;99.90;;;5.24;100.00;102027.97;4151936;28;20057;-75
2023/03/27 06:20:59;;;;;;;6.50;4.45;;;6.20;99.90;;;5.23;100.00;102036.72;4151215;28;20022;-75
2023/03/27 06:23:08;;;;;;;10.60;4.25;;;6.10;99.90;;;5.16;100.00;102031.03;4152103;28;20109;-76
2023/03/27 06:25:09;;;;;;;15.95;4.13;;;6.10;99.90;;;5.16;100.00;102038.88;4151104;28;20038;-75
2023/03/27 06:27:10;;;;;;;12.32;4.00;;;6.10;99.90;;;5.17;100.00;102048.41;4152274;28;20033;-75
2023/03/27 06:29:11;;;;;;;12.32;4.35;;;6.00;99.90;;;5.20;100.00;102063.06;4150790;28;20018;-75
2023/03/27 06:31:13;;;;;;;11.73;4.07;;;6.00;99.90;;;5.13;100.00;102041.69;4151227;28;20128;-75
2023/03/27 06:33:14;;;;;;;7.80;3.60;;;6.00;99.90;;;5.20;100.00;102050.84;4150987;28;20026;-75
2023/03/27 06:35:19;;;;;;;7.90;3.65;;;6.10;99.90;;;5.16;100.00;102049.34;4150864;28;20026;-75
2023/03/27 06:37:20;;;;;;;8.98;3.30;;;6.10;99.90;;;5.14;100.00;102053.00;4164924;28;20064;-75
2023/03/27 06:39:21;;;;;;;5.72;3.83;;;6.10;99.90;;;5.16;100.00;102056.34;4144797;28;20022;-75
2023/03/27 06:41:22;;;;;;;7.05;3.55;;;6.10;99.90;;;5.16;100.00;102067.66;4164268;28;20029;-75
2023/03/27 06:43:23;;;;;;;7.60;4.40;;;6.10;99.90;;;5.17;100.00;102063.28;4152166;28;20022;-75
2023/03/27 06:45:30;;;;;;;12.18;4.55;;;6.10;99.90;;;5.21;100.00;102078.69;4150992;28;20030;-75
2023/03/27 06:47:31;;;;;;;6.45;4.00;;;6.10;99.90;;;5.22;100.00;102088.22;4152063;28;20438;-75
2023/03/27 06:49:32;;;;;;;10.68;4.30;;;6.10;99.90;;;5.26;100.00;102084.50;4150829;28;20061;-76
2023/03/27 06:51:32;;;;;;;11.60;4.30;;;6.20;99.90;;;5.30;100.00;102086.00;4152089;28;20018;-75
2023/03/27 06:53:33;;;;;;;14.38;4.38;;;6.20;99.90;;;5.41;100.00;102096.69;4150800;28;20080;-75
2023/03/27 06:55:35;;;;;;;7.05;3.95;;;6.30;99.90;;;5.50;100.00;102087.44;4167215;28;20030;-76
2023/03/27 06:57:41;;;;;;;15.35;5.90;;;6.40;99.90;;;5.74;100.00;102104.31;4142128;28;20034;-78
2023/03/27 06:59:42;;;;;;;9.52;5.03;;;6.60;99.90;;;5.97;100.00;102102.97;4150897;28;20026;-79
2023/03/27 07:01:43;;;;;;;13.80;5.70;;;6.80;99.90;;;6.17;100.00;102110.44;4152153;28;20033;-75
2023/03/27 07:03:44;;;;;;;13.57;5.70;;;7.00;99.90;;;6.38;100.00;102108.28;4151914;28;20065;-75
2023/03/27 07:05:45;;;;;;;12.70;5.80;;;7.20;99.90;;;6.61;100.00;102116.38;4150820;28;20104;-74
2023/03/27 07:07:46;;;;;;;10.15;5.25;;;7.40;99.90;;;6.84;100.00;102121.94;4145412;28;20085;-74
2023/03/27 07:09:48;;;;;;;8.98;5.30;;;7.60;99.90;;;7.05;100.00;102115.28;4150882;28;20042;-74
2023/03/27 07:11:49;;;;;;;14.45;4.95;;;7.80;99.90;;;7.33;100.00;102130.91;4150815;28;20390;-74
2023/03/27 07:13:50;;;;;;;11.15;5.25;;;8.00;99.90;;;7.45;100.00;102108.25;4166947;28;20029;-74
2023/03/27 07:15:51;;;;;;;11.07;4.55;;;8.30;99.90;;;7.86;100.00;102129.09;4150399;28;20513;-74
2023/03/27 07:17:58;;;;;;;9.32;4.88;;;8.40;99.90;;;8.04;100.00;102130.47;4166517;28;20046;-74
2023/03/27 07:19:59;;;;;;;12.05;5.03;;;8.70;99.90;;;8.16;100.00;102133.09;4150811;28;20101;-75
2023/03/27 07:21:59;;;;;;;11.55;4.40;;;8.80;99.90;;;8.28;100.00;102127.00;4150280;28;20034;-75
2023/03/27 07:24:00;;;;;;;8.80;4.00;;;9.00;99.90;;;8.46;100.00;102119.63;4134248;28;20026;-75
2023/03/27 07:26:01;;;;;;;7.85;4.22;;;9.20;99.90;;;8.65;100.00;102117.38;4150963;28;20109;-75
2023/03/27 07:28:09;;;;;;;8.50;4.18;;;9.40;99.90;;;8.99;100.00;102128.09;4150847;28;20049;-76
2023/03/27 07:30:11;;;;;;;13.13;4.82;;;9.60;99.90;;;9.09;100.00;102124.66;4137267;28;20034;-76
2023/03/27 07:32:12;;;;;;;10.18;3.95;;;9.80;99.90;;;9.18;100.00;102115.22;4169560;28;20029;-75
2023/03/27 07:34:14;;;;;;;7.50;3.75;;;9.90;99.90;;;9.34;100.00;102121.91;4153322;28;20030;-74
2023/03/27 07:36:15;;;;;;;8.25;3.35;;;10.00;99.90;;;9.45;100.00;102114.03;4169880;28;20026;-74
2023/03/27 07:38:17;;;;;;;9.13;4.10;;;10.20;99.90;;;9.55;100.00;102116.81;4136144;28;20031;-74
2023/03/27 07:40:21;;;;;;;6.50;3.20;;;10.30;99.90;;;9.65;100.00;102111.66;4148746;28;20010;-73
2023/03/27 07:42:21;;;;;;;9.35;3.53;;;10.30;99.90;;;9.69;100.00;102094.69;4147051;28;20022;-77
2023/03/27 07:44:22;;;;;;;7.50;2.90;;;10.50;99.90;;;9.85;100.00;102106.56;4146094;28;20053;-75
2023/03/27 07:46:24;;;;;;;9.43;3.72;;;10.60;99.90;;;10.00;100.00;102110.63;4151393;28;20045;-75
2023/03/27 07:48:26;;;;;;;6.25;2.92;;;10.70;99.90;;;10.16;100.00;102105.03;4144600;28;20037;-76
2023/03/27 07:50:27;;;;;;;8.75;3.03;;;10.90;99.90;;;10.30;100.00;102114.53;4153320;28;20045;-76
2023/03/27 07:52:28;;;;;;;7.53;3.53;;;11.10;99.90;;;10.46;100.00;102110.53;4154130;28;20030;-75
2023/03/27 07:54:30;;;;;;;12.50;4.10;;;11.20;99.90;;;10.68;100.00;102116.75;4152928;28;20038;-76
2023/03/27 07:56:32;;;;;;;10.27;2.95;;;11.40;99.90;;;10.80;100.00;102113.13;4153148;28;20084;-76
2023/03/27 07:58:33;;;;;;;7.82;2.78;;;11.60;99.90;;;10.83;100.00;102120.78;4146027;28;20037;-76
2023/03/27 08:00:34;;;;;;;9.65;3.38;;;11.60;99.90;;;10.85;100.00;102118.84;4154198;28;20405;-76
2023/03/27 08:02:36;;;;;;;8.85;3.10;;;11.70;99.90;;;10.90;100.00;102125.44;4152790;28;20032;-75
2023/03/27 08:04:37;;;;;;;10.55;3.80;;;11.70;99.90;;;10.91;100.00;102116.56;4154383;28;20030;-76
2023/03/27 08:06:38;;;;;;;9.05;3.20;;;11.80;99.90;;;10.94;100.00;102120.75;4153944;28;20025;-76
2023/03/27 08:08:39;;;;;;;12.02;3.53;;;11.80;99.90;;;10.98;100.00;102127.47;4152814;28;20034;-76
2023/03/27 08:10:40;;;;;;;10.25;2.88;;;11.80;99.90;;;11.01;100.00;102133.34;4152719;28;20026;-76
2023/03/27 08:12:41;;;;;;;10.52;3.17;;;11.90;99.90;;;11.09;100.00;102124.78;4169264;28;20025;-76
2023/03/27 08:14:45;;;;;;;12.82;3.08;;;12.00;99.90;;;11.24;100.00;102138.53;4152763;28;20535;-76
2023/03/27 08:16:46;;;;;;;;;;;12.10;99.90;;;11.32;100.00;102144.03;4154331;28;20025;-76
2023/03/27 08:18:48;;;;;;;7.15;2.88;;;12.20;99.90;;;11.37;100.00;102126.84;4153744;28;19920;-77
2023/03/27 08:20:56;;;;;;;10.13;3.15;;;12.30;99.90;;;11.47;100.00;102134.81;4152771;28;20056;-77
2023/03/27 08:22:56;;;;;;;12.15;2.50;;;12.30;99.90;;;11.52;100.00;102135.28;4152460;28;20037;-76
2023/03/27 08:24:57;;;;;;;14.55;3.90;;;12.40;99.90;;;11.51;100.00;102130.97;4152656;28;20026;-77
2023/03/27 08:26:58;;;;;;;9.73;2.85;;;12.40;99.90;;;11.52;100.00;102130.84;4168838;28;20033;-77
2023/03/27 08:28:59;;;;;;;8.18;2.72;;;12.40;99.90;;;11.47;100.00;102129.53;4152669;28;20026;-77
2023/03/27 08:31:11;;;;;;;7.82;3.33;;;12.30;99.90;;;11.40;100.00;102131.03;4153342;28;20033;-76
2023/03/27 08:33:12;;;;;;;13.65;4.15;;;12.20;99.90;;;11.17;100.00;102148.75;4152497;28;20037;-77
2023/03/27 08:35:13;;;;;;;8.15;3.28;;;12.00;99.90;;;10.93;100.00;102146.31;4153789;28;20401;-76
2023/03/27 08:37:14;;;;;;;12.60;3.45;;;11.90;99.90;;;10.74;100.00;102148.78;4149971;28;20034;-77
2023/03/27 08:39:15;;;;;;;10.18;3.22;;;11.70;99.90;;;10.69;100.00;102155.38;4152286;28;20022;-77
2023/03/27 08:41:37;;;;;;;8.65;3.03;;;11.60;99.90;;;10.64;100.00;102149.59;4152212;28;20022;-78
2023/03/27 08:43:43;;;;;;;12.65;3.85;;;11.50;99.90;;;10.57;100.00;102151.91;4152625;28;20030;-77
2023/03/27 08:45:57;;;;;;;12.00;3.00;;;11.50;99.90;;;10.51;100.00;102152.41;4143080;28;20034;-78